createdAt,value
2022-11-15T00:04:07.318Z,99943.25
2022-11-15T00:09:10.755Z,99923.19
2022-11-15T00:14:14.005Z,99918.06
2022-11-15T00:19:18.641Z,99919.44
2022-11-15T00:24:21.934Z,99911.09
2022-11-15T00:29:25.193Z,99918.66
2022-11-15T00:34:29.825Z,99918.66
2022-11-15T00:39:33.122Z,99912.22
2022-11-15T00:44:36.361Z,99903.34
2022-11-15T00:49:42.167Z,99896.03
2022-11-15T00:54:45.408Z,99879.13
2022-11-15T00:59:48.767Z,99875.41
2022-11-15T01:04:53.467Z,99877.47
2022-11-15T01:09:56.412Z,99871.53
2022-11-15T01:14:59.716Z,99869.06
2022-11-15T01:20:04.787Z,99874.91
2022-11-15T01:25:08.478Z,99873.72
2022-11-15T01:30:12.150Z,99863.19
2022-11-15T01:35:16.939Z,99854.69
2022-11-15T01:40:19.957Z,99845.44
2022-11-15T01:45:23.491Z,99840.59
2022-11-15T01:50:32.605Z,99810.97
2022-11-15T01:55:36.213Z,99808.34
2022-11-15T02:00:39.882Z,99783.91
2022-11-15T02:05:46.360Z,99786.88
2022-11-15T02:10:49.581Z,99770.50
2022-11-15T02:16:06.035Z,99771.69
2022-11-15T02:21:20.090Z,99779.25
2022-11-15T02:26:50.354Z,99773.91
2022-11-15T02:32:03.377Z,99778.72
2022-11-15T02:37:12.070Z,99763.88
2022-11-15T02:42:37.610Z,99762.78
2022-11-15T02:47:48.024Z,99755.72
2022-11-15T02:52:51.715Z,99751.31
2022-11-15T02:58:06.390Z,99730.88
2022-11-15T03:03:44.339Z,99725.22
2022-11-15T03:08:57.770Z,99703.44
2022-11-15T03:14:05.014Z,99711.41
2022-11-15T03:19:15.746Z,99709.19
2022-11-15T03:24:26.186Z,99693.91
2022-11-15T03:29:34.132Z,99698.88
2022-11-15T03:34:43.671Z,99669.75
2022-11-15T03:39:46.893Z,99668.34
2022-11-15T03:44:57.188Z,99668.16
2022-11-15T03:50:07.042Z,99653.22
2022-11-15T03:55:13.299Z,99650.22
2022-11-15T04:00:17.301Z,99637.91
2022-11-15T04:05:21.871Z,99627.19
2022-11-15T04:10:24.983Z,99633.28
2022-11-15T04:15:29.868Z,99583.81
2022-11-15T04:20:51.799Z,99610.34
2022-11-15T04:25:57.525Z,99601.97
2022-11-15T04:31:00.827Z,99596.59
2022-11-15T04:36:23.077Z,99605.34
2022-11-15T04:41:26.327Z,99567.56
2022-11-15T04:46:29.694Z,99568.56
2022-11-15T04:51:34.278Z,99570.28
2022-11-15T04:56:37.502Z,99574.09
2022-11-15T05:01:44.691Z,99577.69
2022-11-15T05:06:51.099Z,99573.75
2022-11-15T05:11:54.389Z,99570.81
2022-11-15T05:16:57.551Z,99548.94
2022-11-15T05:22:02.102Z,99548.56
2022-11-15T05:27:05.434Z,99528.34
2022-11-15T05:32:10.887Z,99522.44
2022-11-15T05:37:15.819Z,99524.78
2022-11-15T05:42:19.890Z,99497.59
2022-11-15T05:47:27.237Z,99503.66
2022-11-15T05:52:37.311Z,99513.97
2022-11-15T05:57:40.507Z,99498.47
2022-11-15T06:02:43.681Z,99496.59
2022-11-15T06:07:48.221Z,99484.00
2022-11-15T06:12:59.374Z,99486.72
2022-11-15T06:18:02.603Z,99465.84
2022-11-15T06:23:07.716Z,99473.56
2022-11-15T06:28:10.867Z,99490.09
2022-11-15T06:33:14.033Z,99477.97
2022-11-15T06:38:18.569Z,99466.81
2022-11-15T06:43:21.729Z,99443.31
2022-11-15T06:48:24.895Z,99421.59
2022-11-15T06:53:30.611Z,99405.59
2022-11-15T06:58:34.264Z,99397.59
2022-11-15T07:03:38.848Z,99404.16
2022-11-15T07:08:43.886Z,99427.41
2022-11-15T07:13:47.374Z,99420.72
2022-11-15T07:18:50.586Z,99418.41
2022-11-15T07:23:55.444Z,99425.44
2022-11-15T07:28:58.746Z,99418.88
2022-11-15T07:34:02.210Z,99428.72
2022-11-15T07:39:06.938Z,99437.16
2022-11-15T07:44:10.025Z,99460.75
2022-11-15T07:49:13.270Z,99473.75
2022-11-15T07:54:18.002Z,99463.03
2022-11-15T07:59:21.711Z,99460.59
2022-11-15T08:04:24.999Z,99460.97
2022-11-15T08:09:29.740Z,99450.91
2022-11-15T08:14:32.808Z,99442.13
2022-11-15T08:19:36.129Z,99434.41
2022-11-15T08:24:40.806Z,99439.34
2022-11-15T08:29:44.631Z,99432.75
2022-11-15T08:34:47.871Z,99430.75
2022-11-15T08:39:52.569Z,99420.94
2022-11-15T08:44:55.547Z,99421.91
2022-11-15T08:49:58.801Z,99436.66
2022-11-15T09:08:45.602Z,99396.31
2022-11-15T09:13:38.132Z,99426.19
2022-11-15T09:18:41.263Z,99454.31
2022-11-15T09:23:45.813Z,99517.63
2022-11-15T09:28:49.324Z,99523.31
2022-11-15T09:33:52.446Z,99539.13
2022-11-15T09:38:57.047Z,99534.22
2022-11-15T09:44:25.253Z,99552.09
2022-11-15T09:49:29.157Z,99568.31
2022-11-15T09:54:53.792Z,99589.75
2022-11-15T10:00:38.969Z,99599.53
2022-11-15T10:05:53.792Z,99604.41
2022-11-15T10:11:30.450Z,99615.25
2022-11-15T10:17:05.564Z,99640.53
2022-11-15T10:22:24.030Z,99646.38
2022-11-15T10:27:28.686Z,99631.13
2022-11-15T10:32:32.404Z,99630.88
2022-11-15T10:37:35.562Z,99658.13
2022-11-15T10:42:40.111Z,99662.38
2022-11-15T10:47:43.589Z,99667.44
2022-11-15T10:52:49.132Z,99676.94
2022-11-15T10:57:55.366Z,99679.47
2022-11-15T11:03:01.079Z,99677.78
2022-11-15T11:08:07.206Z,99674.09
2022-11-15T11:13:25.698Z,99679.69
2022-11-15T11:18:35.634Z,99673.19
2022-11-15T11:23:50.199Z,99673.66
2022-11-15T11:29:04.639Z,99661.25
2022-11-15T11:34:18.100Z,99669.41
2022-11-15T11:39:31.245Z,99660.59
2022-11-15T11:44:50.913Z,99651.47
2022-11-15T11:49:58.541Z,99646.19
2022-11-15T11:55:07.084Z,99646.28
2022-11-15T12:00:20.999Z,99645.13
2022-11-15T12:05:31.454Z,99643.81
2022-11-15T12:10:37.072Z,99647.88
2022-11-15T12:15:47.108Z,99648.91
2022-11-15T12:20:57.817Z,99641.94
2022-11-15T12:45:37.832Z,99649.81
2022-11-15T12:50:59.213Z,99651.38
2022-11-15T12:56:21.182Z,99647.84
2022-11-15T13:02:00.980Z,99642.75
2022-11-15T13:07:06.034Z,99641.25
2022-11-15T13:12:42.937Z,99629.84
2022-11-15T13:17:51.137Z,99642.19
2022-11-15T13:23:03.384Z,99647.69
2022-11-15T13:28:20.066Z,99634.91
2022-11-15T13:33:31.596Z,99638.00
2022-11-15T13:38:39.374Z,99633.00
2022-11-15T13:43:42.542Z,99631.19
2022-11-15T13:48:49.503Z,99622.38
2022-11-15T13:53:56.919Z,99627.19
2022-11-15T13:59:00.349Z,99612.97
2022-11-15T14:04:07.002Z,99609.16
2022-11-15T14:09:35.001Z,99591.03
2022-11-15T14:14:47.399Z,99608.59
2022-11-15T14:19:53.406Z,99572.03
2022-11-15T14:25:17.899Z,99588.41
2022-11-15T14:30:21.098Z,99575.00
2022-11-15T14:35:26.234Z,99564.63
2022-11-15T14:40:29.630Z,99591.69
2022-11-15T14:45:33.104Z,99585.31
2022-11-15T14:50:38.434Z,99566.00
2022-11-15T14:55:41.786Z,99572.91
2022-11-15T15:00:47.474Z,99571.59
2022-11-15T15:05:52.077Z,99570.03
2022-11-15T15:10:54.968Z,99578.38
2022-11-15T15:15:58.232Z,99583.88
2022-11-15T15:21:08.013Z,99576.25
2022-11-15T15:26:11.883Z,99589.03
2022-11-15T15:31:15.148Z,99580.66
2022-11-15T15:36:21.196Z,99584.44
2022-11-15T15:41:25.273Z,99590.91
2022-11-15T15:46:28.585Z,99592.19
2022-11-15T15:51:33.133Z,99597.31
2022-11-15T15:56:36.311Z,99611.88
2022-11-15T16:01:39.445Z,99606.50
2022-11-15T16:06:45.344Z,99598.13
2022-11-15T16:11:48.877Z,99602.25
2022-11-15T16:16:51.981Z,99617.31
2022-11-15T16:21:56.637Z,99627.50
2022-11-15T16:26:59.518Z,99632.09
2022-11-15T16:32:02.665Z,99612.78
2022-11-15T16:37:07.623Z,99615.78
2022-11-15T16:42:10.744Z,99622.28
2022-11-15T16:47:19.160Z,99621.91
2022-11-15T16:52:23.798Z,99632.28
2022-11-15T16:57:26.670Z,99627.28
2022-11-15T17:02:29.794Z,99627.75
2022-11-15T17:07:34.399Z,99632.63
2022-11-15T17:12:37.723Z,99625.09
2022-11-15T17:17:41.481Z,99636.34
2022-11-15T17:22:47.503Z,99627.88
2022-11-15T17:27:50.962Z,99628.75
2022-11-15T17:32:54.312Z,99625.09
2022-11-15T17:37:59.015Z,99626.03
2022-11-15T17:43:02.822Z,99650.06
2022-11-15T17:48:06.189Z,99651.78
2022-11-15T17:53:11.143Z,99666.63
2022-11-15T17:58:14.384Z,99658.72
2022-11-15T18:03:20.608Z,99651.78
2022-11-15T18:08:25.380Z,99658.53
2022-11-15T18:13:28.460Z,99675.81
2022-11-15T18:18:33.245Z,99680.50
2022-11-15T18:23:38.523Z,99683.66
2022-11-15T18:28:44.179Z,99674.59
2022-11-15T18:33:47.650Z,99687.19
2022-11-15T18:38:55.896Z,99699.41
2022-11-15T18:44:00.940Z,99687.00
2022-11-15T18:49:04.400Z,99684.47
2022-11-15T18:54:10.936Z,99683.69
2022-11-15T18:59:14.593Z,99683.78
2022-11-15T19:04:19.948Z,99683.78
2022-11-15T19:09:32.015Z,99690.72
2022-11-15T19:14:35.234Z,99696.66
2022-11-15T19:19:38.518Z,99689.72
2022-11-15T19:24:43.258Z,99692.19
2022-11-15T19:29:46.319Z,99701.91
2022-11-15T19:34:49.614Z,99698.53
2022-11-15T19:39:54.221Z,99704.16
2022-11-15T19:44:57.833Z,99713.63
2022-11-15T19:50:01.324Z,99702.28
2022-11-15T19:55:06.819Z,99693.28
2022-11-15T20:00:11.342Z,99701.31
2022-11-15T20:05:18.400Z,99707.53
2022-11-15T20:10:23.196Z,99709.50
2022-11-15T20:15:26.386Z,99710.31
2022-11-15T20:20:30.687Z,99713.97
2022-11-15T20:25:41.809Z,99709.41
2022-11-15T20:30:45.989Z,99704.81
2022-11-15T20:35:49.241Z,99716.00
2022-11-15T20:40:59.881Z,99737.81
2022-11-15T20:46:03.611Z,99736.47
2022-11-15T20:51:08.622Z,99736.88
2022-11-15T20:56:15.047Z,99737.97
2022-11-15T21:01:23.533Z,99744.84
2022-11-15T21:06:28.000Z,99745.84
2022-11-15T21:11:49.930Z,99751.72
2022-11-15T21:16:53.136Z,99757.91
2022-11-15T21:21:56.506Z,99749.09
2022-11-15T21:27:01.081Z,99740.44
2022-11-15T21:32:07.122Z,99744.31
2022-11-15T21:37:11.160Z,99740.91
2022-11-15T21:42:15.686Z,99739.84
2022-11-15T21:47:18.856Z,99742.47
2022-11-15T21:52:22.310Z,99733.91
2022-11-15T21:57:30.290Z,99740.59
2022-11-15T22:02:33.519Z,99738.19
2022-11-15T22:07:36.731Z,99718.00
2022-11-15T22:12:41.330Z,99726.50
2022-11-15T22:17:59.432Z,99726.41
2022-11-15T22:23:02.930Z,99741.06
2022-11-15T22:28:07.531Z,99728.03
2022-11-15T22:33:10.673Z,99723.47
2022-11-15T22:38:14.602Z,99720.84
2022-11-15T22:43:21.415Z,99709.88
2022-11-15T22:48:26.331Z,99716.81
2022-11-15T22:53:30.165Z,99722.88
2022-11-15T22:58:35.570Z,99717.41
2022-11-15T23:03:39.126Z,99722.44
2022-11-15T23:08:42.641Z,99720.75
2022-11-15T23:13:47.251Z,99726.88
2022-11-15T23:18:51.658Z,99742.88
2022-11-15T23:23:54.779Z,99743.03
2022-11-15T23:28:59.361Z,99730.75
2022-11-15T23:34:02.812Z,99736.00
2022-11-15T23:39:06.004Z,99739.25
2022-11-15T23:44:10.545Z,99733.13
2022-11-15T23:49:13.673Z,99735.75
2022-11-15T23:54:16.945Z,99739.06
2022-11-15T23:59:21.486Z,99731.09
